Time;durP1;ratioP1;P1;durP2;ratioP2;P2;SDS_P1;SDS_P2;PMS_P1;PMS_P2;Temp;Humidity;BMP_temperature;BMP_pressure;BME280_temperature;BME280_humidity;BME280_pressure;Samples;Min_cycle;Max_cycle;Signal;HPM_P1;HPM_P2
2022/07/17 00:00:59;;;;;;;5.78;1.58;;;;;;;;;;5043264;28;20049;-68
2022/07/17 00:03:25;;;;;;;6.22;1.98;;;;;;;;;;5023938;28;20049;-69
2022/07/17 00:05:52;;;;;;;6.80;2.47;;;;;;;;;;5050539;28;20021;-68
2022/07/17 00:08:18;;;;;;;7.43;2.25;;;;;;;;;;5036746;28;20390;-68
2022/07/17 00:10:44;;;;;;;6.68;1.88;;;13.10;58.60;;;;;;5047066;28;20098;-69
2022/07/17 00:13:10;;;;;;;4.80;2.00;;;13.10;58.70;;;;;;5044524;28;20203;-67
2022/07/17 00:15:36;;;;;;;5.10;1.70;;;13.00;59.10;;;;;;5040364;28;20018;-69
2022/07/17 00:18:02;;;;;;;4.90;1.70;;;12.90;59.60;;;;;;5031844;28;20040;-68
2022/07/17 00:20:29;;;;;;;5.03;1.83;;;13.00;59.40;;;;;;5038671;28;20173;-68
2022/07/17 00:22:55;;;;;;;5.65;2.30;;;13.00;59.90;;;;;;5045454;28;20025;-67
2022/07/17 00:25:21;;;;;;;6.00;2.30;;;12.90;59.80;;;;;;5045887;28;20021;-68
2022/07/17 00:27:47;;;;;;;6.80;1.70;;;12.80;60.20;;;;;;5019601;28;20026;-67
2022/07/17 00:30:13;;;;;;;5.28;2.22;;;12.70;60.40;;;;;;5032121;28;20655;-69
2022/07/17 00:32:40;;;;;;;5.35;1.80;;;12.70;60.70;;;;;;5040654;28;20013;-69
2022/07/17 00:35:07;;;;;;;7.10;1.98;;;12.60;60.80;;;;;;5042561;28;20099;-68
2022/07/17 00:37:45;;;;;;;5.85;1.90;;;12.60;61.00;;;;;;5046515;28;20487;-68
2022/07/17 00:40:16;;;;;;;9.80;2.70;;;12.60;61.10;;;;;;5036032;28;20025;-68
2022/07/17 00:42:42;;;;;;;6.68;1.95;;;12.60;61.10;;;;;;5046939;28;20017;-69
2022/07/17 00:45:08;;;;;;;4.28;1.85;;;12.60;61.00;;;;;;5043864;28;20139;-69
2022/07/17 00:47:49;;;;;;;3.67;1.58;;;12.60;61.20;;;;;;5038882;28;20032;-68
2022/07/17 00:50:15;;;;;;;2.75;1.38;;;12.50;61.40;;;;;;5049947;28;20064;-69
2022/07/17 00:52:41;;;;;;;6.88;1.52;;;12.50;61.40;;;;;;5040126;28;20013;-67
2022/07/17 00:55:08;;;;;;;6.57;1.85;;;12.50;61.70;;;;;;5043387;28;20021;-69
2022/07/17 00:57:36;;;;;;;2.85;1.85;;;12.50;61.80;;;;;;5046560;28;20021;-68
2022/07/17 01:00:08;;;;;;;6.82;1.75;;;12.40;62.20;;;;;;5036683;28;20029;-69
2022/07/17 01:02:34;;;;;;;7.90;2.20;;;12.40;62.00;;;;;;5047720;28;20017;-68
2022/07/17 01:04:59;;;;;;;6.70;2.35;;;12.40;62.30;;;;;;5042476;28;20032;-68
2022/07/17 01:07:25;;;;;;;4.22;1.88;;;12.30;62.40;;;;;;5039801;28;20462;-68
2022/07/17 01:09:51;;;;;;;6.32;1.60;;;12.40;62.50;;;;;;5049141;28;20056;-69
2022/07/17 01:12:17;;;;;;;7.20;2.50;;;12.20;62.90;;;;;;5036541;28;20096;-69
2022/07/17 01:14:43;;;;;;;4.90;1.98;;;12.20;63.20;;;;;;5046184;28;20025;-69
2022/07/17 01:17:10;;;;;;;7.78;2.30;;;12.10;63.40;;;;;;5042584;28;20021;-69
2022/07/17 01:19:35;;;;;;;6.95;2.13;;;12.10;63.60;;;;;;5038849;28;20064;-68
2022/07/17 01:22:01;;;;;;;8.45;2.70;;;12.00;64.00;;;;;;5049418;28;20056;-69
2022/07/17 01:24:27;;;;;;;5.05;2.58;;;12.00;63.90;;;;;;5037424;28;20033;-67
2022/07/17 01:26:52;;;;;;;8.77;2.75;;;12.00;64.10;;;;;;5026652;28;20257;-69
2022/07/17 01:29:18;;;;;;;6.32;2.63;;;12.00;64.50;;;;;;5043468;28;20499;-66
2022/07/17 01:31:44;;;;;;;9.88;2.80;;;11.90;64.50;;;;;;5037465;28;20026;-69
2022/07/17 01:34:12;;;;;;;6.78;2.72;;;11.80;64.90;;;;;;5049085;28;20025;-69
2022/07/17 01:36:38;;;;;;;7.97;3.08;;;11.80;65.20;;;;;;5037038;28;20024;-69
2022/07/17 01:39:05;;;;;;;5.43;2.28;;;11.70;65.30;;;;;;5041818;28;20022;-68
2022/07/17 01:41:30;;;;;;;7.18;2.45;;;11.70;65.30;;;;;;5046139;28;20033;-68
2022/07/17 01:43:57;;;;;;;6.43;2.17;;;11.70;65.40;;;;;;5035828;28;20070;-68
2022/07/17 01:46:22;;;;;;;4.90;2.17;;;11.60;65.70;;;;;;5048367;28;20183;-69
2022/07/17 01:48:48;;;;;;;13.07;3.30;;;11.60;66.00;;;;;;5038918;28;20108;-68
2022/07/17 01:51:13;;;;;;;5.30;2.33;;;11.60;66.00;;;;;;5040841;28;20484;-69
2022/07/17 01:53:39;;;;;;;7.05;2.33;;;11.60;66.00;;;;;;5047080;28;20033;-68
2022/07/17 01:56:05;;;;;;;7.72;2.20;;;11.60;65.90;;;;;;5035690;28;20095;-68
2022/07/17 01:58:30;;;;;;;6.22;1.85;;;11.60;65.90;;;;;;5046139;28;20383;-69
2022/07/17 02:00:56;;;;;;;5.32;2.25;;;11.50;66.20;;;;;;5040754;28;20044;-68
2022/07/17 02:03:22;;;;;;;7.28;2.13;;;11.50;66.30;;;;;;5039747;28;20029;-69
2022/07/17 02:05:47;;;;;;;4.50;1.75;;;11.50;66.50;;;;;;5048081;28;20048;-69
2022/07/17 02:08:13;;;;;;;4.60;1.83;;;11.50;66.60;;;;;;5034454;28;20427;-69
2022/07/17 02:10:39;;;;;;;4.80;2.13;;;11.50;66.70;;;;;;5027587;28;20055;-69
2022/07/17 02:13:05;;;;;;;8.88;2.20;;;11.50;66.70;;;;;;5041723;28;20044;-67
2022/07/17 02:15:31;;;;;;;15.10;2.70;;;11.50;66.80;;;;;;5038341;28;20033;-68
2022/07/17 02:17:57;;;;;;;8.57;2.28;;;11.50;66.70;;;;;;5047496;28;20025;-67
2022/07/17 02:20:23;;;;;;;9.90;2.47;;;11.50;66.70;;;;;;5035383;28;20025;-68
2022/07/17 02:22:49;;;;;;;6.63;1.95;;;11.50;66.60;;;;;;5026015;28;20399;-70
2022/07/17 02:25:15;;;;;;;12.07;2.20;;;11.40;66.80;;;;;;5042960;28;20036;-69
2022/07/17 02:27:41;;;;;;;4.85;1.88;;;11.40;66.90;;;;;;5036299;28;20028;-69
2022/07/17 02:30:15;;;;;;;7.80;2.20;;;11.40;67.10;;;;;;5047814;28;20060;-69
2022/07/17 02:32:41;;;;;;;6.82;2.72;;;11.30;67.30;;;;;;5038132;28;20070;-66
2022/07/17 02:35:08;;;;;;;6.22;2.33;;;11.30;67.50;;;;;;5039914;28;20025;-69
2022/07/17 02:37:34;;;;;;;7.30;3.42;;;11.20;67.60;;;;;;5044602;28;20021;-69
2022/07/17 02:40:00;;;;;;;5.88;2.28;;;11.10;68.00;;;;;;5035018;28;20029;-69
2022/07/17 02:42:28;;;;;;;6.20;1.88;;;11.10;68.00;;;;;;5047336;28;20045;-67
2022/07/17 02:44:54;;;;;;;8.88;2.38;;;11.10;68.30;;;;;;5021821;28;20025;-68
2022/07/17 02:47:25;;;;;;;6.10;2.63;;;11.00;68.50;;;;;;5038427;28;20108;-68
2022/07/17 02:49:51;;;;;;;4.63;1.90;;;11.00;68.50;;;;;;5047428;28;20079;-70
2022/07/17 02:52:18;;;;;;;4.78;2.13;;;11.00;68.80;;;;;;5016957;28;20256;-68
2022/07/17 02:54:44;;;;;;;7.03;2.83;;;10.90;69.00;;;;;;5044226;28;20025;-68
2022/07/17 02:57:10;;;;;;;6.72;2.15;;;10.80;69.40;;;;;;5040985;28;20048;-68
2022/07/17 02:59:36;;;;;;;5.93;2.00;;;10.80;69.60;;;;;;5018929;28;20423;-69
2022/07/17 03:02:03;;;;;;;4.78;2.28;;;10.70;70.00;;;;;;5047366;28;20033;-66
2022/07/17 03:04:28;;;;;;;9.00;2.00;;;10.70;70.10;;;;;;5036008;28;20108;-68
2022/07/17 03:06:54;;;;;;;8.30;2.20;;;10.70;70.20;;;;;;5042580;28;20522;-67
2022/07/17 03:09:19;;;;;;;4.70;2.08;;;10.70;70.30;;;;;;5041974;28;20120;-67
2022/07/17 03:11:45;;;;;;;12.77;2.40;;;10.70;70.40;;;;;;5035562;28;20028;-68
2022/07/17 03:14:10;;;;;;;9.60;2.58;;;10.70;70.20;;;;;;5029645;28;20079;-69
2022/07/17 03:16:36;;;;;;;4.10;1.48;;;10.70;70.20;;;;;;5036892;28;20413;-69
2022/07/17 03:19:02;;;;;;;10.13;2.38;;;10.60;70.40;;;;;;5040583;28;20049;-68
2022/07/17 03:21:28;;;;;;;4.85;1.63;;;10.70;70.50;;;;;;5043987;28;20033;-69
2022/07/17 03:23:53;;;;;;;2.17;1.88;;;10.70;70.50;;;;;;5016486;28;20075;-69
2022/07/17 03:26:19;;;;;;;5.55;1.65;;;10.70;70.10;;;;;;5029387;28;20033;-68
2022/07/17 03:28:45;;;;;;;4.63;2.38;;;10.80;69.80;;;;;;5036942;28;20021;-69
2022/07/17 03:31:10;;;;;;;9.63;2.15;;;10.90;69.70;;;;;;5040204;28;20041;-68
2022/07/17 03:33:36;;;;;;;5.35;2.03;;;10.90;69.60;;;;;;5045163;28;20022;-68
2022/07/17 03:36:01;;;;;;;11.57;2.83;;;11.00;69.40;;;;;;5031288;28;20028;-69
2022/07/17 03:38:27;;;;;;;9.07;2.22;;;11.00;69.20;;;;;;5032588;28;20525;-69
2022/07/17 03:40:53;;;;;;;6.53;1.90;;;11.10;69.20;;;;;;5038833;28;20037;-68
2022/07/17 03:43:18;;;;;;;7.57;2.28;;;11.10;69.00;;;;;;5021232;28;20030;-68
2022/07/17 03:45:44;;;;;;;5.78;2.47;;;11.40;68.50;;;;;;5046055;28;20025;-69
2022/07/17 03:48:09;;;;;;;5.88;1.98;;;12.00;66.50;;;;;;5033440;28;20049;-70
2022/07/17 03:50:35;;;;;;;7.80;2.35;;;12.90;63.60;;;;;;5044802;28;20088;-69
2022/07/17 03:53:01;;;;;;;6.97;2.10;;;13.90;60.00;;;;;;5017176;28;20029;-69
2022/07/17 03:55:26;;;;;;;5.22;2.22;;;14.50;57.70;;;;;;5043405;28;20036;-68
2022/07/17 03:57:52;;;;;;;6.55;1.63;;;15.50;54.70;;;;;;5033580;28;20022;-69
2022/07/17 04:00:18;;;;;;;9.57;2.33;;;16.00;53.40;;;;;;5046579;28;20021;-69
2022/07/17 04:02:43;;;;;;;5.78;1.80;;;16.30;51.50;;;;;;5037533;28;20431;-69
2022/07/17 04:05:10;;;;;;;7.53;1.60;;;16.40;51.40;;;;;;5022257;28;20032;-69
2022/07/17 04:07:37;;;;;;;12.23;2.30;;;17.40;49.60;;;;;;5043783;28;20033;-70
2022/07/17 04:10:03;;;;;;;5.90;1.50;;;17.60;47.70;;;;;;5033553;28;20029;-70
2022/07/17 04:12:29;;;;;;;5.68;1.70;;;18.60;45.80;;;;;;5045541;28;20024;-68
2022/07/17 04:14:55;;;;;;;4.80;1.50;;;19.50;43.30;;;;;;5041411;28;20021;-70
2022/07/17 04:17:21;;;;;;;8.00;1.88;;;20.00;41.80;;;;;;5041307;28;20086;-70
2022/07/17 04:19:47;;;;;;;7.78;2.15;;;20.20;41.00;;;;;;5050026;28;20036;-70
2022/07/17 04:22:13;;;;;;;5.50;1.80;;;20.20;41.50;;;;;;5037349;28;20038;-69
2022/07/17 04:24:39;;;;;;;3.72;1.33;;;20.00;41.40;;;;;;5029729;28;20044;-69
2022/07/17 04:27:04;;;;;;;7.38;1.88;;;20.50;40.70;;;;;;5043266;28;20029;-68
2022/07/17 04:29:30;;;;;;;8.45;1.55;;;20.40;40.50;;;;;;5040895;28;20033;-69
2022/07/17 04:31:56;;;;;;;7.07;2.40;;;20.50;40.30;;;;;;5050418;28;20032;-70
2022/07/17 04:34:21;;;;;;;5.05;1.50;;;20.60;40.10;;;;;;5037829;28;20025;-71
2022/07/17 04:36:47;;;;;;;4.43;1.50;;;21.50;39.50;;;;;;5044529;28;20546;-69
2022/07/17 04:39:12;;;;;;;8.70;1.52;;;22.90;36.60;;;;;;5043964;28;20033;-69
2022/07/17 04:41:38;;;;;;;6.00;1.73;;;23.20;35.30;;;;;;5039073;28;20087;-69
2022/07/17 04:44:04;;;;;;;4.47;1.45;;;23.00;35.70;;;;;;5048840;28;20029;-69
2022/07/17 04:46:29;;;;;;;5.90;1.40;;;22.20;36.80;;;;;;5048579;28;20133;-69
2022/07/17 04:48:55;;;;;;;3.65;1.38;;;23.00;35.90;;;;;;5041128;28;20029;-69
2022/07/17 04:51:20;;;;;;;4.53;1.35;;;24.00;34.50;;;;;;5041268;28;20031;-69
2022/07/17 04:53:46;;;;;;;8.40;1.67;;;24.80;33.30;;;;;;5049178;28;20368;-70
2022/07/17 04:56:12;;;;;;;4.95;1.52;;;25.60;31.90;;;;;;5036820;28;20057;-70
2022/07/17 04:58:37;;;;;;;5.28;1.23;;;26.70;30.40;;;;;;5046415;28;20028;-69
2022/07/17 05:01:03;;;;;;;4.53;1.52;;;26.90;30.30;;;;;;5043151;28;20031;-69
2022/07/17 05:03:29;;;;;;;2.10;1.25;;;28.10;28.30;;;;;;5039930;28;20513;-70
2022/07/17 05:05:54;;;;;;;5.10;1.60;;;28.90;27.30;;;;;;5049445;28;20052;-69
2022/07/17 05:08:20;;;;;;;6.57;1.70;;;29.10;26.50;;;;;;5036241;28;20025;-68
2022/07/17 05:10:46;;;;;;;3.67;1.20;;;28.80;26.60;;;;;;5045623;28;20043;-66
2022/07/17 05:13:12;;;;;;;7.78;1.63;;;28.80;26.70;;;;;;5044063;28;20047;-69
2022/07/17 05:15:38;;;;;;;4.47;1.17;;;28.90;26.60;;;;;;5038435;28;20100;-69
2022/07/17 05:18:04;;;;;;;3.97;1.67;;;29.30;26.30;;;;;;5048831;28;20060;-70
2022/07/17 05:20:30;;;;;;;3.97;1.50;;;29.60;26.10;;;;;;5038067;28;20036;-70
2022/07/17 05:22:55;;;;;;;4.40;1.60;;;29.80;25.70;;;;;;5044449;28;20552;-69
2022/07/17 05:25:21;;;;;;;4.82;1.50;;;30.40;25.10;;;;;;5026567;28;20078;-68
2022/07/17 05:27:46;;;;;;;5.45;1.48;;;29.70;25.90;;;;;;5036376;28;20100;-67
2022/07/17 05:30:12;;;;;;;6.53;1.42;;;29.50;26.00;;;;;;5048795;28;20499;-70
2022/07/17 05:32:37;;;;;;;5.00;1.20;;;30.00;26.00;;;;;;5038882;28;20025;-69
2022/07/17 05:35:03;;;;;;;7.28;1.75;;;30.60;25.30;;;;;;5041138;28;20041;-69
2022/07/17 05:37:29;;;;;;;6.25;1.55;;;30.90;25.00;;;;;;5044847;28;20025;-69
2022/07/17 05:39:55;;;;;;;4.40;1.63;;;;;;;;;;5036125;28;20036;-70
2022/07/17 05:42:21;;;;;;;7.13;1.70;;;;;;;;;;5048703;28;20079;-71
2022/07/17 05:44:47;;;;;;;7.07;1.52;;;;;;;;;;5039733;28;20017;-69
2022/07/17 05:47:13;;;;;;;3.13;1.25;;;;;;;;;;5040912;28;20386;-71
2022/07/17 05:49:39;;;;;;;4.88;2.00;;;;;;;;;;5046861;28;20025;-70
2022/07/17 05:52:06;;;;;;;3.47;1.27;;;;;;;;;;5035724;28;20483;-68
2022/07/17 05:54:34;;;;;;;5.40;1.38;;;;;;;;;;5047135;28;20021;-69
2022/07/17 05:57:01;;;;;;;3.60;1.30;;;;;;;;;;5041109;28;20025;-69
2022/07/17 05:59:27;;;;;;;2.53;1.10;;;33.80;21.30;;;;;;5038646;28;20049;-69
2022/07/17 06:01:52;;;;;;;5.00;1.70;;;32.40;23.00;;;;;;5048855;28;20475;-67
2022/07/17 06:04:18;;;;;;;3.05;1.33;;;32.20;22.80;;;;;;5035897;28;20396;-70
2022/07/17 06:06:44;;;;;;;7.25;1.77;;;31.90;23.20;;;;;;5040979;28;20502;-71
2022/07/17 06:09:09;;;;;;;6.07;1.70;;;31.80;23.50;;;;;;5030986;28;20064;-69
2022/07/17 06:11:35;;;;;;;5.38;1.50;;;31.50;24.20;;;;;;5045993;28;20025;-68
2022/07/17 06:14:00;;;;;;;5.53;1.38;;;32.20;23.20;;;;;;5035271;28;20033;-69
2022/07/17 06:16:26;;;;;;;4.53;1.40;;;30.20;24.80;;;;;;5029544;28;20018;-70
2022/07/17 06:18:52;;;;;;;4.22;1.40;;;28.70;26.50;;;;;;5039175;28;20078;-70
2022/07/17 06:21:18;;;;;;;9.70;1.50;;;;;;;;;;5040518;28;20025;-69
2022/07/17 06:23:44;;;;;;;5.95;1.55;;;;;;;;;;5047047;28;20025;-67
2022/07/17 06:26:09;;;;;;;5.18;1.88;;;30.10;25.90;;;;;;5035280;28;20456;-70
2022/07/17 06:28:35;;;;;;;7.43;1.60;;;30.20;25.30;;;;;;5044670;28;20021;-68
2022/07/17 06:31:00;;;;;;;3.95;1.73;;;29.40;26.10;;;;;;5037502;28;20105;-71
2022/07/17 06:33:27;;;;;;;4.63;1.20;;;;;;;;;;5037393;28;20013;-70
2022/07/17 06:35:52;;;;;;;13.18;4.55;;;28.90;26.70;;;;;;5029670;28;20048;-69
2022/07/17 06:38:18;;;;;;;3.65;1.38;;;28.90;27.40;;;;;;5028731;28;20048;-68
2022/07/17 06:40:44;;;;;;;4.53;1.42;;;30.00;26.00;;;;;;5038216;28;20062;-70
2022/07/17 06:43:09;;;;;;;4.13;1.20;;;30.00;25.50;;;;;;5040783;28;20117;-71
2022/07/17 06:45:35;;;;;;;4.03;1.40;;;30.00;25.60;;;;;;5045442;28;20029;-68
2022/07/17 06:48:00;;;;;;;6.13;1.55;;;30.90;24.70;;;;;;5033790;28;20040;-69
2022/07/17 06:50:26;;;;;;;2.33;1.20;;;30.80;24.50;;;;;;5046625;28;20049;-70
2022/07/17 06:52:52;;;;;;;4.85;1.40;;;31.80;24.10;;;;;;5039078;28;20032;-69
2022/07/17 06:55:17;;;;;;;4.85;1.30;;;31.50;23.90;;;;;;5021788;28;20403;-67
2022/07/17 06:57:43;;;;;;;3.78;1.20;;;31.80;23.90;;;;;;5045472;28;20052;-67
2022/07/17 07:00:10;;;;;;;4.18;1.15;;;32.90;22.60;;;;;;5034622;28;20496;-69
2022/07/17 07:02:36;;;;;;;5.25;1.45;;;33.10;22.00;;;;;;5045340;28;20533;-67
2022/07/17 07:05:02;;;;;;;4.88;1.45;;;31.00;23.60;;;;;;5038931;28;20536;-69
2022/07/17 07:07:27;;;;;;;5.10;1.30;;;29.20;26.70;;;;;;5043118;28;20032;-67
2022/07/17 07:09:53;;;;;;;5.45;1.90;;;27.60;27.80;;;;;;5016338;28;20132;-69
2022/07/17 07:12:19;;;;;;;4.15;1.25;;;25.90;30.40;;;;;;5018103;28;20021;-68
2022/07/17 07:14:44;;;;;;;12.05;1.58;;;26.90;30.70;;;;;;5043911;28;20036;-69
2022/07/17 07:17:10;;;;;;;4.18;1.20;;;28.00;28.40;;;;;;5040694;28;20022;-71
2022/07/17 07:19:36;;;;;;;3.30;1.02;;;29.10;27.50;;;;;;5019106;28;20035;-70
2022/07/17 07:22:02;;;;;;;9.00;1.20;;;;;;;;;;5047416;28;20025;-70
2022/07/17 07:24:28;;;;;;;5.32;1.30;;;;;;;;;;5017804;28;20025;-68
2022/07/17 07:26:54;;;;;;;5.13;1.17;;;;;;;;;;5024448;28;20029;-70
2022/07/17 07:29:20;;;;;;;4.50;1.27;;;;;;;;;;5041981;28;20033;-70
2022/07/17 07:31:47;;;;;;;5.85;1.83;;;29.90;25.70;;;;;;5035088;28;20024;-72
2022/07/17 07:34:13;;;;;;;6.95;1.48;;;28.60;27.20;;;;;;5047510;28;20031;-70
2022/07/17 07:36:38;;;;;;;6.18;1.90;;;28.70;27.90;;;;;;5017602;28;20100;-69
2022/07/17 07:39:04;;;;;;;7.20;2.85;;;29.50;26.60;;;;;;5039809;28;20026;-70
2022/07/17 07:41:30;;;;;;;5.22;1.60;;;30.30;26.00;;;;;;5044237;28;20024;-70
2022/07/17 07:43:56;;;;;;;4.82;1.75;;;29.90;26.10;;;;;;5016500;28;20052;-70
2022/07/17 07:46:21;;;;;;;5.03;1.40;;;29.10;27.50;;;;;;5046892;28;20096;-69
2022/07/17 07:48:47;;;;;;;4.22;1.25;;;29.00;27.40;;;;;;5021386;28;20078;-70
2022/07/17 07:51:13;;;;;;;5.75;1.48;;;;;;;;;;5043610;28;20032;-70
2022/07/17 07:53:41;;;;;;;6.10;1.38;;;30.40;25.50;;;;;;5049208;28;20028;-70
2022/07/17 07:56:07;;;;;;;3.80;1.15;;;;;;;;;;5038091;28;20053;-70
2022/07/17 07:58:33;;;;;;;5.00;1.45;;;30.70;25.90;;;;;;5048050;28;20025;-68
2022/07/17 08:00:59;;;;;;;6.07;1.50;;;31.60;25.00;;;;;;5025447;28;20021;-71
2022/07/17 08:03:24;;;;;;;3.75;1.30;;;31.30;24.70;;;;;;5040227;28;20022;-69
2022/07/17 08:05:50;;;;;;;5.43;1.48;;;30.50;25.70;;;;;;5019335;28;20040;-70
2022/07/17 08:08:16;;;;;;;6.78;2.20;;;29.90;26.60;;;;;;5049904;28;20398;-69
2022/07/17 08:10:41;;;;;;;8.55;2.25;;;28.90;27.60;;;;;;5040973;28;20029;-70
2022/07/17 08:13:07;;;;;;;31.10;14.93;;;28.20;28.40;;;;;;5044019;28;20017;-69
2022/07/17 08:15:32;;;;;;;13.98;4.93;;;27.60;29.70;;;;;;5047542;28;20025;-68
2022/07/17 08:17:59;;;;;;;9.40;3.28;;;27.20;30.60;;;;;;5018880;28;20059;-69
2022/07/17 08:20:25;;;;;;;5.55;1.70;;;27.10;30.80;;;;;;5041551;28;20079;-69
2022/07/17 08:22:51;;;;;;;5.07;1.65;;;27.50;30.00;;;;;;5046030;28;20033;-67
2022/07/17 08:25:17;;;;;;;6.57;2.03;;;26.90;30.30;;;;;;5045626;28;20043;-69
2022/07/17 08:27:43;;;;;;;8.32;1.70;;;27.20;30.40;;;;;;5037558;28;20171;-68
2022/07/17 08:30:11;;;;;;;6.65;1.20;;;28.20;29.30;;;;;;5050063;28;20028;-69
2022/07/17 08:32:38;;;;;;;5.43;1.75;;;28.80;28.40;;;;;;5039656;28;20423;-70
2022/07/17 08:35:04;;;;;;;5.25;1.92;;;;;;;;;;5042443;28;20522;-69
2022/07/17 08:37:30;;;;;;;12.25;4.53;;;;;;;;;;5045938;28;20070;-67
2022/07/17 08:39:56;;;;;;;7.35;2.55;;;28.40;29.10;;;;;;5037473;28;20052;-69
2022/07/17 08:42:23;;;;;;;4.28;1.50;;;28.40;29.00;;;;;;5031950;28;20384;-69
2022/07/17 08:44:48;;;;;;;4.32;1.20;;;29.40;28.20;;;;;;5041194;28;20044;-68
2022/07/17 08:47:15;;;;;;;4.05;1.40;;;30.80;25.80;;;;;;5040351;28;20475;-70
2022/07/17 08:49:45;;;;;;;4.70;1.73;;;31.90;24.60;;;;;;5039165;28;20029;-68
2022/07/17 08:52:12;;;;;;;4.20;1.58;;;30.60;25.10;;;;;;5035890;28;20048;-72
2022/07/17 08:54:39;;;;;;;3.42;1.27;;;29.80;26.80;;;;;;5047171;28;20018;-66
2022/07/17 08:57:09;;;;;;;6.38;1.48;;;30.10;26.60;;;;;;5042673;28;20047;-68
2022/07/17 08:59:35;;;;;;;4.03;1.33;;;30.50;25.80;;;;;;5038267;28;20056;-70
2022/07/17 09:02:01;;;;;;;5.25;1.50;;;;;;;;;;5049836;28;20039;-70
2022/07/17 09:04:28;;;;;;;4.32;1.30;;;;;;;;;;5019631;28;20021;-68
2022/07/17 09:07:04;;;;;;;6.10;1.40;;;;;;;;;;5044685;28;20057;-70
2022/07/17 09:09:31;;;;;;;4.75;1.20;;;;;;;;;;5046058;28;20437;-70
2022/07/17 09:12:01;;;;;;;7.93;1.88;;;;;;;;;;5018732;28;20399;-71
2022/07/17 09:14:47;;;;;;;3.50;1.40;;;28.50;28.50;;;;;;5048682;28;20017;-70
2022/07/17 09:17:13;;;;;;;3.05;1.00;;;28.30;29.00;;;;;;5043257;28;20082;-71
2022/07/17 09:19:45;;;;;;;6.55;1.48;;;28.70;28.00;;;;;;5038468;28;20030;-68
2022/07/17 09:22:22;;;;;;;9.63;1.55;;;28.50;28.10;;;;;;5042830;28;20484;-70
2022/07/17 09:24:55;;;;;;;4.88;1.50;;;28.90;28.00;;;;;;5045058;28;20112;-71
2022/07/17 09:27:24;;;;;;;6.15;1.60;;;28.90;27.30;;;;;;5044945;28;20025;-72
2022/07/17 09:29:55;;;;;;;3.47;1.20;;;29.10;26.90;;;;;;5036494;28;20397;-71
2022/07/17 09:32:23;;;;;;;4.82;1.48;;;29.60;26.70;;;;;;5002518;28;20112;-70
2022/07/17 09:34:49;;;;;;;4.30;1.23;;;28.80;27.70;;;;;;5024772;28;20029;-69
2022/07/17 09:37:15;;;;;;;6.40;1.25;;;27.70;29.50;;;;;;5043376;28;20025;-69
2022/07/17 09:39:41;;;;;;;2.65;1.20;;;27.60;29.30;;;;;;5019794;28;20040;-69
2022/07/17 09:42:08;;;;;;;2.72;0.95;;;28.20;29.20;;;;;;5049151;28;20025;-69
2022/07/17 09:44:33;;;;;;;3.58;1.05;;;29.00;27.60;;;;;;5020141;28;20059;-68
2022/07/17 09:47:01;;;;;;;5.65;1.48;;;29.20;26.70;;;;;;5024786;28;20037;-67
2022/07/17 09:49:28;;;;;;;4.30;1.30;;;29.20;27.30;;;;;;5045039;28;20045;-70
2022/07/17 09:51:54;;;;;;;5.80;1.52;;;29.60;26.70;;;;;;5036252;28;20029;-70
2022/07/17 09:54:22;;;;;;;5.45;1.02;;;29.80;26.10;;;;;;5053025;28;20074;-69
2022/07/17 09:56:51;;;;;;;7.55;1.42;;;30.20;25.50;;;;;;5027421;28;20095;-69
2022/07/17 09:59:18;;;;;;;5.72;1.20;;;30.00;25.40;;;;;;5040658;28;20026;-72
2022/07/17 10:01:48;;;;;;;3.67;1.00;;;29.50;25.80;;;;;;5030236;28;20195;-70
2022/07/17 10:04:15;;;;;;;3.10;1.30;;;29.20;26.70;;;;;;5019020;28;20078;-69
2022/07/17 10:06:41;;;;;;;4.78;1.40;;;29.00;26.60;;;;;;5047667;28;20300;-69
2022/07/17 10:09:07;;;;;;;6.97;1.70;;;29.00;26.40;;;;;;5042852;28;20060;-69
2022/07/17 10:11:36;;;;;;;4.07;1.20;;;29.00;26.60;;;;;;5039891;28;20029;-70
2022/07/17 10:14:05;;;;;;;5.95;1.38;;;29.40;26.40;;;;;;5049372;28;20079;-69
2022/07/17 10:16:32;;;;;;;6.35;1.50;;;29.30;25.50;;;;;;5037277;28;20020;-71
2022/07/17 10:19:00;;;;;;;6.45;1.23;;;28.90;26.80;;;;;;5024068;28;20036;-70
2022/07/17 10:21:28;;;;;;;8.50;1.40;;;28.60;27.50;;;;;;5026937;28;20079;-69
2022/07/17 10:23:54;;;;;;;3.55;1.25;;;28.30;27.00;;;;;;5035056;28;20030;-69
2022/07/17 10:26:38;;;;;;;5.20;1.00;;;28.00;27.80;;;;;;5047956;28;20021;-70
2022/07/17 10:29:08;;;;;;;8.48;1.48;;;27.50;29.20;;;;;;5041287;28;20560;-69
2022/07/17 10:31:34;;;;;;;4.90;1.33;;;27.00;29.20;;;;;;5038105;28;20053;-69
2022/07/17 10:34:01;;;;;;;3.53;1.05;;;27.30;28.40;;;;;;5047905;28;20096;-70
2022/07/17 10:36:36;;;;;;;2.65;1.15;;;27.30;28.60;;;;;;5034407;28;20445;-69
2022/07/17 10:39:18;;;;;;;5.57;1.77;;;27.40;29.10;;;;;;5041181;28;20081;-71
2022/07/17 10:41:56;;;;;;;4.82;1.67;;;27.40;27.90;;;;;;5046701;28;20035;-69
2022/07/17 10:44:29;;;;;;;5.30;1.40;;;27.40;28.70;;;;;;5019619;28;20483;-70
2022/07/17 10:46:56;;;;;;;4.78;1.23;;;27.40;28.70;;;;;;5042779;28;20029;-69
2022/07/17 10:49:25;;;;;;;5.05;1.55;;;27.40;28.00;;;;;;5043019;28;20067;-69
2022/07/17 10:51:52;;;;;;;8.30;1.30;;;27.30;28.00;;;;;;5034941;28;20479;-69
2022/07/17 10:54:19;;;;;;;4.28;1.08;;;27.10;28.30;;;;;;5047655;28;20494;-67
2022/07/17 10:56:44;;;;;;;3.83;1.23;;;26.90;29.00;;;;;;5037679;28;20495;-70
2022/07/17 10:59:10;;;;;;;4.57;1.20;;;26.80;27.70;;;;;;5022475;28;20105;-68
2022/07/17 11:01:36;;;;;;;4.60;1.35;;;26.70;28.20;;;;;;5045466;28;20033;-67
2022/07/17 11:04:04;;;;;;;3.38;1.08;;;26.70;28.60;;;;;;5034783;28;20037;-70
2022/07/17 11:06:37;;;;;;;7.70;1.58;;;;;;;;;;5045910;28;20071;-68
2022/07/17 11:09:10;;;;;;;5.30;1.30;;;26.00;29.10;;;;;;5039718;28;20033;-68
2022/07/17 11:11:41;;;;;;;3.30;1.10;;;25.80;30.10;;;;;;5036845;28;20017;-69
2022/07/17 11:14:21;;;;;;;4.22;1.48;;;25.60;29.50;;;;;;5047163;28;20028;-69
2022/07/17 11:16:52;;;;;;;7.57;1.48;;;25.40;30.30;;;;;;5038268;28;20071;-69
2022/07/17 11:19:25;;;;;;;6.40;1.45;;;25.30;30.80;;;;;;5038462;28;20068;-67
2022/07/17 11:21:52;;;;;;;3.25;1.67;;;25.30;31.60;;;;;;5047115;28;20383;-70
2022/07/17 11:24:18;;;;;;;6.35;2.10;;;25.50;31.00;;;;;;5033592;28;20035;-70
2022/07/17 11:26:44;;;;;;;8.80;3.35;;;24.10;32.90;;;;;;5043750;28;20021;-69
2022/07/17 11:29:10;;;;;;;7.80;2.00;;;23.90;33.30;;;;;;5022471;28;20029;-68
2022/07/17 11:31:36;;;;;;;4.03;1.52;;;23.60;33.80;;;;;;5036906;28;20032;-71
2022/07/17 11:34:09;;;;;;;3.33;1.20;;;24.00;32.90;;;;;;5046984;28;20021;-69
2022/07/17 11:36:44;;;;;;;5.80;1.30;;;24.50;32.30;;;;;;5035420;28;20147;-68
2022/07/17 11:39:18;;;;;;;9.90;6.97;;;24.90;31.40;;;;;;5039166;28;20033;-69
2022/07/17 11:41:52;;;;;;;5.05;1.88;;;24.60;30.30;;;;;;5045829;28;20028;-68
2022/07/17 11:44:23;;;;;;;5.90;1.60;;;24.10;31.30;;;;;;5033767;28;20027;-69
2022/07/17 11:46:50;;;;;;;5.63;1.83;;;23.70;32.10;;;;;;5042930;28;20108;-69
2022/07/17 11:49:26;;;;;;;4.40;1.58;;;23.70;32.70;;;;;;5040942;28;20063;-69
2022/07/17 11:51:52;;;;;;;2.65;1.45;;;24.30;32.60;;;;;;5034304;28;20022;-69
2022/07/17 11:54:17;;;;;;;3.90;1.38;;;24.70;31.90;;;;;;5046949;28;20018;-70
2022/07/17 11:56:54;;;;;;;4.00;1.30;;;25.00;31.60;;;;;;5037325;28;20495;-68
2022/07/17 11:59:29;;;;;;;5.45;1.70;;;24.90;30.80;;;;;;5037703;28;20438;-69
2022/07/17 12:01:55;;;;;;;6.00;1.75;;;25.20;30.70;;;;;;5047049;28;20021;-70
2022/07/17 12:04:21;;;;;;;4.07;1.30;;;25.50;31.20;;;;;;5034181;28;20021;-67
2022/07/17 12:07:00;;;;;;;3.78;1.10;;;25.60;31.00;;;;;;5043008;28;20101;-69
2022/07/17 12:09:33;;;;;;;4.25;1.35;;;25.70;30.70;;;;;;5042611;28;20021;-67
2022/07/17 12:11:59;;;;;;;3.38;1.08;;;25.60;31.20;;;;;;5016135;28;20497;-69
2022/07/17 12:14:24;;;;;;;6.18;1.48;;;25.60;30.70;;;;;;5046035;28;20014;-68
2022/07/17 12:16:53;;;;;;;3.58;1.35;;;25.30;30.50;;;;;;5020319;28;20064;-70
2022/07/17 12:19:22;;;;;;;3.15;1.30;;;25.00;32.20;;;;;;5037999;28;20547;-69
2022/07/17 12:21:50;;;;;;;7.45;1.52;;;25.10;31.60;;;;;;5046573;28;20414;-69
2022/07/17 12:24:40;;;;;;;2.85;0.93;;;25.20;30.50;;;;;;5016254;28;20068;-69
2022/07/17 12:27:08;;;;;;;3.85;1.08;;;25.30;30.70;;;;;;5010461;28;20045;-68
2022/07/17 12:29:34;;;;;;;2.65;1.27;;;25.10;30.70;;;;;;5044377;28;20033;-69
2022/07/17 12:32:18;;;;;;;5.88;1.50;;;24.60;30.40;;;;;;5034494;28;20459;-70
2022/07/17 12:34:46;;;;;;;5.47;1.42;;;23.80;31.70;;;;;;5043796;28;20411;-69
2022/07/17 12:37:20;;;;;;;6.57;1.42;;;23.90;31.80;;;;;;5044332;28;20017;-69
2022/07/17 12:39:47;;;;;;;9.32;1.33;;;23.70;32.60;;;;;;5038666;28;20104;-70
2022/07/17 12:42:13;;;;;;;5.57;1.45;;;23.90;32.70;;;;;;5032628;28;20025;-71
2022/07/17 12:44:39;;;;;;;6.03;1.17;;;24.00;32.10;;;;;;5040204;28;20039;-69
2022/07/17 12:47:04;;;;;;;5.13;1.00;;;24.20;32.20;;;;;;5043458;28;20479;-69
2022/07/17 12:49:30;;;;;;;4.70;1.33;;;24.30;32.20;;;;;;5046914;28;20087;-70
2022/07/17 12:51:56;;;;;;;3.50;1.10;;;23.70;31.90;;;;;;5037122;28;20045;-69
2022/07/17 12:54:22;;;;;;;4.10;1.48;;;23.70;33.10;;;;;;5049943;28;20434;-71